Time;durP1;ratioP1;P1;durP2;ratioP2;P2;SDS_P1;SDS_P2;PMS_P1;PMS_P2;Temp;Humidity;BMP_temperature;BMP_pressure;BME280_temperature;BME280_humidity;BME280_pressure;Samples;Min_cycle;Max_cycle;Signal;HPM_P1;HPM_P2
2021/09/18 00:02:08;;;;;;;1.73;1.40;;;14.90;97.30;;;;;;5072424;28;20175;-78
2021/09/18 00:04:34;;;;;;;1.50;1.37;;;14.90;97.30;;;;;;5071017;28;20183;-78
2021/09/18 00:06:59;;;;;;;3.00;1.50;;;14.80;97.30;;;;;;5070901;28;20767;-78
2021/09/18 00:09:25;;;;;;;1.57;1.40;;;14.80;97.30;;;;;;5071878;28;20178;-77
2021/09/18 00:11:50;;;;;;;3.77;1.70;;;14.80;97.30;;;;;;5070707;28;20217;-78
2021/09/18 00:14:20;;;;;;;2.10;1.37;;;14.80;97.30;;;;;;5070721;28;20202;-77
2021/09/18 00:16:46;;;;;;;9.70;1.50;;;14.80;97.30;;;;;;5070902;28;20557;-77
2021/09/18 00:19:12;;;;;;;3.90;1.60;;;14.80;97.30;;;;;;5071945;28;20449;-77
2021/09/18 00:21:38;;;;;;;1.53;1.20;;;14.80;97.30;;;;;;5072926;28;20464;-77
2021/09/18 00:24:04;;;;;;;1.50;1.33;;;14.80;97.30;;;;;;5073562;28;20268;-78
2021/09/18 00:26:32;;;;;;;1.87;1.40;;;14.80;97.30;;;;;;5073674;28;20222;-78
2021/09/18 00:28:58;;;;;;;1.73;1.57;;;14.70;97.30;;;;;;5073803;28;20778;-77
2021/09/18 00:31:24;;;;;;;1.30;1.20;;;14.70;97.30;;;;;;5073712;28;20414;-77
2021/09/18 00:33:50;;;;;;;1.70;1.60;;;14.70;97.30;;;;;;5074404;28;20845;-76
2021/09/18 00:36:15;;;;;;;1.70;1.50;;;14.70;97.30;;;;;;5073264;28;20175;-78
2021/09/18 00:38:41;;;;;;;2.37;1.30;;;14.70;97.30;;;;;;5073658;28;20191;-77
2021/09/18 00:41:07;;;;;;;3.03;1.33;;;14.70;97.30;;;;;;5073588;28;20210;-77
2021/09/18 00:43:32;;;;;;;1.87;1.33;;;14.70;97.30;;;;;;5073367;28;20231;-75
2021/09/18 00:45:58;;;;;;;1.63;1.30;;;14.70;97.30;;;;;;5074799;28;20708;-77
2021/09/18 00:48:23;;;;;;;1.13;1.03;;;14.70;97.30;;;;;;5074875;28;20171;-78
2021/09/18 00:50:49;;;;;;;1.70;1.50;;;14.70;97.30;;;;;;5074506;28;20171;-77
2021/09/18 00:53:15;;;;;;;2.50;1.40;;;14.70;97.30;;;;;;5073413;28;20248;-77
2021/09/18 00:55:42;;;;;;;2.40;1.50;;;14.60;97.30;;;;;;5074365;28;20168;-76
2021/09/18 00:58:08;;;;;;;1.80;1.33;;;14.60;97.30;;;;;;5074052;28;20198;-77
2021/09/18 01:00:34;;;;;;;1.30;1.30;;;14.60;97.30;;;;;;5072623;28;20934;-77
2021/09/18 01:02:59;;;;;;;3.60;1.47;;;14.60;97.30;;;;;;5072090;28;20447;-76
2021/09/18 01:05:25;;;;;;;1.27;1.20;;;14.60;97.30;;;;;;5070584;28;20195;-77
2021/09/18 01:07:55;;;;;;;1.37;1.23;;;14.60;97.30;;;;;;5071839;28;20245;-76
2021/09/18 01:10:21;;;;;;;2.63;1.30;;;14.60;97.30;;;;;;5070498;28;20827;-78
2021/09/18 01:13:03;;;;;;;1.40;1.30;;;14.50;97.30;;;;;;5070699;28;20437;-77
2021/09/18 01:15:31;;;;;;;2.30;1.33;;;14.50;97.30;;;;;;5070386;28;20175;-76
2021/09/18 01:17:58;;;;;;;3.60;1.30;;;14.50;97.30;;;;;;5070577;28;20758;-77
2021/09/18 01:20:24;;;;;;;1.30;1.30;;;14.60;97.30;;;;;;5070584;28;20422;-77
2021/09/18 01:22:51;;;;;;;4.87;1.43;;;14.60;97.30;;;;;;5070166;28;20454;-77
2021/09/18 01:25:17;;;;;;;2.13;1.27;;;14.60;97.30;;;;;;5070784;28;20453;-77
2021/09/18 01:27:46;;;;;;;3.37;1.37;;;14.60;97.30;;;;;;5072213;28;20467;-77
2021/09/18 01:30:25;;;;;;;5.83;1.50;;;14.60;97.30;;;;;;5072559;28;20167;-78
2021/09/18 01:32:52;;;;;;;1.23;1.00;;;14.60;97.30;;;;;;5072476;28;20478;-77
2021/09/18 01:35:18;;;;;;;3.20;1.57;;;14.60;97.30;;;;;;5071421;28;20421;-77
2021/09/18 01:37:46;;;;;;;2.63;1.40;;;14.60;97.30;;;;;;5071230;28;20436;-77
2021/09/18 01:40:14;;;;;;;1.50;1.40;;;14.50;97.30;;;;;;5071454;28;20215;-77
2021/09/18 01:42:44;;;;;;;1.63;1.37;;;14.50;97.30;;;;;;5071217;28;20465;-77
2021/09/18 01:45:11;;;;;;;3.80;1.23;;;14.50;97.30;;;;;;5071301;28;20825;-77
2021/09/18 01:47:42;;;;;;;3.23;1.50;;;14.50;97.30;;;;;;5071182;28;20401;-77
2021/09/18 01:50:35;;;;;;;1.23;1.13;;;14.50;97.30;;;;;;5071099;28;20413;-77
2021/09/18 01:53:03;;;;;;;1.73;1.60;;;14.50;97.30;;;;;;5071289;28;20438;-78
2021/09/18 01:55:29;;;;;;;1.67;1.47;;;14.50;97.30;;;;;;5072707;28;20425;-77
2021/09/18 01:57:56;;;;;;;4.07;1.50;;;14.50;97.30;;;;;;5070956;28;20926;-77
2021/09/18 02:00:22;;;;;;;1.57;1.47;;;14.50;97.30;;;;;;5071092;28;20262;-78
2021/09/18 02:02:48;;;;;;;3.10;1.60;;;14.40;97.30;;;;;;5072110;28;20471;-77
2021/09/18 02:05:17;;;;;;;1.93;1.83;;;14.40;97.30;;;;;;5071158;28;20852;-77
2021/09/18 02:07:43;;;;;;;1.60;1.57;;;14.40;97.30;;;;;;5070815;28;20406;-77
2021/09/18 02:10:13;;;;;;;3.17;1.33;;;14.40;97.30;;;;;;5071085;28;20411;-77
2021/09/18 02:12:38;;;;;;;1.50;1.40;;;14.40;97.30;;;;;;5072522;28;20775;-77
2021/09/18 02:15:06;;;;;;;3.60;1.63;;;14.40;97.30;;;;;;5070959;28;20457;-77
2021/09/18 02:17:32;;;;;;;2.07;1.50;;;14.40;97.30;;;;;;5070841;28;20187;-77
2021/09/18 02:19:57;;;;;;;1.43;1.33;;;14.30;97.30;;;;;;5071321;28;20428;-77
2021/09/18 02:22:23;;;;;;;1.60;1.50;;;14.30;97.30;;;;;;5072545;28;20430;-77
2021/09/18 02:24:49;;;;;;;1.30;1.23;;;14.30;97.30;;;;;;5071272;28;20236;-78
2021/09/18 02:27:14;;;;;;;1.70;1.40;;;14.30;97.30;;;;;;5070659;28;20771;-77
2021/09/18 02:29:40;;;;;;;1.30;1.30;;;14.30;97.30;;;;;;5071577;28;20237;-78
2021/09/18 02:32:06;;;;;;;3.30;1.30;;;14.20;97.30;;;;;;5070669;28;20182;-77
2021/09/18 02:34:31;;;;;;;2.13;1.60;;;14.20;97.30;;;;;;5070908;28;20186;-77
2021/09/18 02:36:57;;;;;;;1.33;1.20;;;14.20;97.30;;;;;;5070731;28;20193;-77
2021/09/18 02:39:23;;;;;;;4.30;1.70;;;14.20;97.30;;;;;;5071879;28;20175;-77
2021/09/18 02:41:49;;;;;;;3.23;1.60;;;14.20;97.30;;;;;;5071808;28;20175;-77
2021/09/18 02:44:14;;;;;;;2.10;1.50;;;14.20;97.30;;;;;;5069692;28;20237;-77
2021/09/18 02:46:40;;;;;;;1.40;1.30;;;14.20;97.30;;;;;;5070439;28;20209;-77
2021/09/18 02:49:05;;;;;;;1.80;1.70;;;14.20;97.30;;;;;;5070378;28;20224;-76
2021/09/18 02:51:31;;;;;;;2.40;1.43;;;14.20;97.30;;;;;;5069975;28;20531;-77
2021/09/18 02:53:58;;;;;;;2.20;1.20;;;14.20;97.30;;;;;;5070129;28;20653;-77
2021/09/18 02:56:24;;;;;;;3.00;1.50;;;14.20;97.30;;;;;;5070550;28;20185;-77
2021/09/18 02:58:49;;;;;;;3.13;1.83;;;14.20;97.30;;;;;;5070051;28;20422;-77
2021/09/18 03:01:15;;;;;;;2.67;1.40;;;14.20;97.30;;;;;;5069541;28;20247;-77
2021/09/18 03:03:41;;;;;;;1.40;1.30;;;14.20;97.30;;;;;;5069976;28;20278;-76
2021/09/18 03:06:06;;;;;;;2.00;1.33;;;14.20;97.30;;;;;;5070222;28;20293;-76
2021/09/18 03:08:32;;;;;;;1.43;1.23;;;14.20;97.30;;;;;;5071810;28;20629;-76
2021/09/18 03:10:57;;;;;;;3.10;1.73;;;14.20;97.30;;;;;;5070797;28;20290;-77
2021/09/18 03:13:23;;;;;;;7.17;3.00;;;14.20;97.30;;;;;;5070881;28;20212;-78
2021/09/18 03:15:48;;;;;;;1.40;1.30;;;14.20;97.30;;;;;;5071328;28;20648;-76
2021/09/18 03:18:14;;;;;;;2.10;1.40;;;14.20;97.30;;;;;;5071538;28;20182;-76
2021/09/18 03:20:40;;;;;;;1.50;1.40;;;14.20;97.30;;;;;;5071055;28;20278;-76
2021/09/18 03:23:08;;;;;;;1.70;1.40;;;14.20;97.30;;;;;;5071304;28;20940;-76
2021/09/18 03:25:34;;;;;;;2.73;2.10;;;14.20;97.30;;;;;;5071162;28;20285;-77
2021/09/18 03:28:00;;;;;;;3.00;1.37;;;14.10;97.30;;;;;;5071165;28;20409;-77
2021/09/18 03:30:26;;;;;;;5.70;1.43;;;14.10;97.30;;;;;;5072396;28;20412;-76
2021/09/18 03:32:51;;;;;;;6.20;1.53;;;14.10;97.30;;;;;;5072441;28;20564;-77
2021/09/18 03:35:17;;;;;;;7.03;1.90;;;14.10;97.30;;;;;;5072614;28;20254;-77
2021/09/18 03:37:42;;;;;;;1.57;1.47;;;14.10;97.30;;;;;;5071338;28;20175;-76
2021/09/18 03:40:10;;;;;;;1.90;1.63;;;14.10;97.30;;;;;;5071241;28;20173;-76
2021/09/18 03:42:36;;;;;;;3.10;1.70;;;14.00;97.30;;;;;;5070907;28;20267;-76
2021/09/18 03:45:03;;;;;;;2.77;1.90;;;14.00;97.30;;;;;;5070801;28;20453;-78
2021/09/18 03:47:29;;;;;;;2.53;2.03;;;14.00;97.30;;;;;;5071213;28;20417;-76
2021/09/18 03:49:54;;;;;;;1.90;1.57;;;14.00;97.30;;;;;;5071107;28;20475;-76
2021/09/18 03:52:21;;;;;;;2.90;1.80;;;14.00;97.30;;;;;;5070975;28;20209;-76
2021/09/18 03:54:46;;;;;;;2.20;1.53;;;14.00;97.30;;;;;;5072384;28;20633;-76
2021/09/18 03:57:12;;;;;;;7.63;1.50;;;14.00;97.30;;;;;;5075217;28;20483;-77
2021/09/18 03:59:38;;;;;;;3.07;1.80;;;14.00;97.30;;;;;;5075992;28;20258;-76
2021/09/18 04:02:03;;;;;;;2.07;1.50;;;14.00;97.30;;;;;;5074762;28;20175;-76
2021/09/18 04:04:29;;;;;;;5.83;1.67;;;14.00;97.30;;;;;;5075896;28;20171;-77
2021/09/18 04:06:55;;;;;;;1.83;1.70;;;14.00;97.30;;;;;;5074681;28;20210;-80
2021/09/18 04:09:21;;;;;;;2.60;2.27;;;14.00;97.30;;;;;;5075689;28;20661;-76
2021/09/18 04:11:46;;;;;;;5.37;1.80;;;14.00;97.30;;;;;;5074857;28;20175;-77
2021/09/18 04:14:12;;;;;;;3.00;2.00;;;14.00;97.30;;;;;;5073895;28;20449;-77
2021/09/18 04:16:37;;;;;;;1.70;1.70;;;14.00;97.30;;;;;;5073226;28;20587;-77
2021/09/18 04:19:04;;;;;;;1.90;1.77;;;13.90;97.30;;;;;;5073015;28;20182;-77
2021/09/18 04:21:30;;;;;;;3.33;1.67;;;13.90;97.30;;;;;;5074583;28;20171;-77
2021/09/18 04:23:55;;;;;;;4.37;2.00;;;13.90;97.30;;;;;;5072756;28;20437;-77
2021/09/18 04:26:21;;;;;;;7.90;2.10;;;13.90;97.30;;;;;;5072784;28;20203;-77
2021/09/18 04:28:47;;;;;;;5.40;2.10;;;13.90;97.30;;;;;;5072335;28;20201;-76
2021/09/18 04:31:13;;;;;;;2.70;1.50;;;13.90;97.30;;;;;;5072584;28;20902;-77
2021/09/18 04:33:38;;;;;;;3.57;1.87;;;13.80;97.30;;;;;;5073952;28;20270;-77
2021/09/18 04:36:04;;;;;;;2.60;1.90;;;13.80;97.30;;;;;;5073968;28;20198;-77
2021/09/18 04:38:30;;;;;;;2.40;1.53;;;13.80;97.30;;;;;;5073797;28;20179;-76
2021/09/18 04:40:56;;;;;;;3.63;1.47;;;13.80;97.30;;;;;;5073840;28;20463;-78
2021/09/18 04:43:21;;;;;;;1.30;1.20;;;13.80;97.30;;;;;;5072243;28;20247;-77
2021/09/18 04:45:47;;;;;;;1.63;1.60;;;13.80;97.30;;;;;;5072498;28;20207;-79
2021/09/18 04:48:13;;;;;;;1.40;1.30;;;13.90;97.30;;;;;;5072791;28;20190;-77
2021/09/18 04:50:38;;;;;;;1.37;1.30;;;13.90;97.30;;;;;;5072108;28;20186;-78
2021/09/18 04:53:04;;;;;;;1.70;1.60;;;13.90;97.30;;;;;;5072468;28;20567;-76
2021/09/18 04:55:29;;;;;;;1.30;1.27;;;13.90;97.30;;;;;;5072301;28;20717;-77
2021/09/18 04:57:55;;;;;;;1.63;1.30;;;13.90;97.30;;;;;;5072829;28;20179;-79
2021/09/18 05:00:21;;;;;;;2.10;1.10;;;13.90;97.30;;;;;;5075253;28;20731;-80
2021/09/18 05:02:47;;;;;;;2.17;1.70;;;13.90;97.30;;;;;;5075203;28;20207;-80
2021/09/18 05:05:13;;;;;;;4.20;1.60;;;13.90;97.30;;;;;;5076023;28;20981;-78
2021/09/18 05:07:38;;;;;;;1.93;1.30;;;13.90;97.30;;;;;;5072498;28;20286;-80
2021/09/18 05:10:04;;;;;;;2.07;1.23;;;13.90;97.30;;;;;;5075799;28;20525;-78
2021/09/18 05:12:30;;;;;;;2.13;1.30;;;13.90;97.30;;;;;;5075997;28;20199;-80
2021/09/18 05:14:56;;;;;;;1.40;1.30;;;13.90;97.30;;;;;;5076632;28;20484;-79
2021/09/18 05:17:22;;;;;;;1.30;1.30;;;13.90;97.30;;;;;;5073807;28;20183;-78
2021/09/18 05:19:48;;;;;;;1.83;1.40;;;13.90;97.30;;;;;;5072538;28;20341;-78
2021/09/18 05:22:13;;;;;;;1.93;1.53;;;13.90;97.30;;;;;;5075120;28;20429;-80
2021/09/18 05:24:39;;;;;;;1.80;1.40;;;13.90;97.30;;;;;;5076537;28;20171;-78
2021/09/18 05:27:07;;;;;;;3.47;1.70;;;13.80;97.30;;;;;;5075418;28;20676;-79
2021/09/18 05:29:33;;;;;;;2.83;1.40;;;13.80;97.30;;;;;;5075187;28;20171;-78
2021/09/18 05:31:59;;;;;;;2.00;1.50;;;13.80;97.30;;;;;;5077743;28;20945;-78
2021/09/18 05:34:24;;;;;;;6.20;1.70;;;13.80;97.30;;;;;;5071287;28;20196;-79
2021/09/18 05:36:50;;;;;;;3.57;1.50;;;13.80;97.30;;;;;;5071078;28;20182;-78
2021/09/18 05:39:15;;;;;;;3.67;1.83;;;13.80;97.30;;;;;;5068976;28;20195;-78
2021/09/18 05:41:41;;;;;;;1.40;1.30;;;13.80;97.30;;;;;;5065787;28;20266;-77
2021/09/18 05:44:07;;;;;;;2.63;1.30;;;13.80;97.30;;;;;;5053187;28;20234;-78
2021/09/18 05:46:33;;;;;;;2.93;1.70;;;13.80;97.30;;;;;;5070657;28;20691;-78
2021/09/18 05:48:58;;;;;;;2.80;1.40;;;13.80;97.30;;;;;;5072101;28;20735;-77
2021/09/18 05:51:24;;;;;;;1.87;1.47;;;13.80;97.30;;;;;;5070288;28;20422;-77
2021/09/18 05:53:49;;;;;;;4.80;1.87;;;13.80;97.30;;;;;;5072475;28;20197;-77
2021/09/18 05:56:15;;;;;;;2.50;1.47;;;13.80;97.30;;;;;;5071747;28;20179;-78
2021/09/18 05:58:41;;;;;;;1.30;1.20;;;13.80;97.30;;;;;;5057309;28;20176;-78
2021/09/18 06:01:06;;;;;;;2.07;1.37;;;13.80;97.30;;;;;;5064093;28;20183;-78
2021/09/18 06:03:32;;;;;;;4.17;1.40;;;13.90;97.30;;;;;;5067403;28;20683;-78
2021/09/18 06:05:57;;;;;;;2.63;1.47;;;13.90;97.30;;;;;;5071308;28;20837;-77
2021/09/18 06:08:23;;;;;;;8.93;1.40;;;13.90;97.30;;;;;;5072012;28;20589;-77
2021/09/18 06:10:49;;;;;;;1.60;1.60;;;13.90;97.30;;;;;;5068096;28;20486;-77
2021/09/18 06:13:14;;;;;;;1.50;1.50;;;13.90;97.30;;;;;;5072044;28;20199;-78
2021/09/18 06:15:40;;;;;;;3.37;1.37;;;13.90;97.30;;;;;;5065943;28;20167;-77
2021/09/18 06:18:05;;;;;;;11.83;1.97;;;14.00;97.30;;;;;;5051707;28;20214;-79
2021/09/18 06:20:31;;;;;;;3.50;1.70;;;14.00;97.30;;;;;;5062450;28;20529;-78
2021/09/18 06:22:57;;;;;;;3.93;1.50;;;14.00;97.30;;;;;;5058461;28;20219;-79
2021/09/18 06:25:22;;;;;;;5.03;1.90;;;14.00;97.30;;;;;;5052839;28;20203;-76
2021/09/18 06:27:48;;;;;;;1.40;1.13;;;14.00;97.30;;;;;;5054352;28;20172;-78
2021/09/18 06:30:14;;;;;;;6.83;1.80;;;14.00;97.30;;;;;;5072440;28;20258;-78
2021/09/18 06:32:40;;;;;;;1.70;1.53;;;14.00;97.30;;;;;;5073595;28;20198;-78
2021/09/18 06:35:07;;;;;;;2.73;1.83;;;14.00;97.30;;;;;;5071843;28;20410;-77
2021/09/18 06:37:32;;;;;;;1.30;1.30;;;14.00;97.30;;;;;;5070864;28;20508;-78
2021/09/18 06:39:58;;;;;;;3.50;1.70;;;14.00;97.30;;;;;;5070931;28;20965;-77
2021/09/18 06:42:24;;;;;;;1.57;1.40;;;14.00;97.30;;;;;;5070570;28;20202;-78
2021/09/18 06:44:49;;;;;;;2.40;1.87;;;14.00;97.30;;;;;;5057432;28;20563;-76
2021/09/18 06:47:16;;;;;;;2.43;1.77;;;14.00;97.30;;;;;;5050215;28;20206;-76
2021/09/18 06:49:41;;;;;;;3.43;1.60;;;14.00;97.30;;;;;;5050317;28;20506;-77
2021/09/18 06:52:07;;;;;;;3.00;1.93;;;14.00;97.30;;;;;;5070209;28;20171;-78
2021/09/18 06:54:33;;;;;;;2.77;1.60;;;14.10;97.30;;;;;;5071823;28;20170;-75
2021/09/18 06:56:58;;;;;;;2.20;1.80;;;14.10;97.30;;;;;;5070573;28;20555;-75
2021/09/18 06:59:24;;;;;;;4.20;1.83;;;14.10;97.30;;;;;;5069309;28;20586;-75
2021/09/18 07:01:50;;;;;;;5.47;1.67;;;14.10;97.30;;;;;;5071441;28;20190;-73
2021/09/18 07:04:16;;;;;;;2.70;1.70;;;14.10;97.30;;;;;;5071169;28;20449;-75
2021/09/18 07:06:42;;;;;;;2.20;1.83;;;14.20;97.30;;;;;;5072458;28;21232;-75
2021/09/18 07:09:07;;;;;;;1.77;1.73;;;14.20;97.30;;;;;;5071222;28;20637;-78
2021/09/18 07:11:33;;;;;;;1.83;1.50;;;14.20;97.30;;;;;;5068382;28;20167;-76
2021/09/18 07:13:58;;;;;;;2.97;1.57;;;14.20;97.30;;;;;;5050501;28;20691;-76
2021/09/18 07:16:24;;;;;;;2.67;1.83;;;14.20;97.30;;;;;;5066642;28;20586;-76
2021/09/18 07:18:49;;;;;;;3.23;2.10;;;14.20;97.30;;;;;;5071116;28;20713;-77
2021/09/18 07:21:15;;;;;;;2.37;1.90;;;14.20;97.30;;;;;;5070785;28;20809;-78
2021/09/18 07:23:40;;;;;;;3.93;2.50;;;14.30;97.30;;;;;;5091354;28;20256;-75
2021/09/18 07:26:06;;;;;;;2.07;1.77;;;14.30;97.30;;;;;;5091638;28;20297;-75
2021/09/18 07:28:34;;;;;;;2.97;2.20;;;14.40;97.30;;;;;;5091602;28;20705;-75
2021/09/18 07:31:00;;;;;;;2.60;1.90;;;14.40;97.30;;;;;;5095333;28;20175;-76
2021/09/18 07:33:25;;;;;;;2.60;1.70;;;14.40;97.30;;;;;;5097168;28;20430;-78
2021/09/18 07:35:51;;;;;;;6.90;2.40;;;14.30;97.30;;;;;;5095910;28;20179;-76
2021/09/18 07:38:16;;;;;;;6.97;2.40;;;14.20;97.30;;;;;;5096009;28;20175;-75
2021/09/18 07:40:42;;;;;;;5.30;2.00;;;14.20;97.30;;;;;;5095662;28;20178;-75
2021/09/18 07:43:08;;;;;;;3.73;2.40;;;14.10;97.30;;;;;;5096834;28;20222;-78
2021/09/18 07:45:34;;;;;;;3.20;2.50;;;14.10;97.30;;;;;;5095491;28;20464;-75
2021/09/18 07:47:59;;;;;;;4.40;3.20;;;14.00;97.30;;;;;;5095849;28;20174;-76
2021/09/18 07:50:25;;;;;;;3.37;2.43;;;14.00;97.30;;;;;;5092346;28;20179;-76
2021/09/18 07:52:50;;;;;;;2.80;2.20;;;14.00;97.30;;;;;;5074839;28;20552;-77
2021/09/18 07:55:16;;;;;;;4.17;2.27;;;14.00;97.30;;;;;;5076309;28;20199;-75
2021/09/18 07:57:42;;;;;;;7.80;2.37;;;14.00;97.30;;;;;;5075147;28;20183;-75
2021/09/18 08:00:08;;;;;;;4.00;2.70;;;14.00;97.30;;;;;;5076516;28;20181;-76
2021/09/18 08:02:34;;;;;;;5.27;2.70;;;14.00;97.30;;;;;;5075034;28;20253;-75
2021/09/18 08:05:02;;;;;;;4.23;2.63;;;14.00;97.30;;;;;;5075038;28;20425;-75
2021/09/18 08:07:28;;;;;;;5.83;3.23;;;14.00;97.30;;;;;;5076331;28;20488;-76
2021/09/18 08:09:55;;;;;;;3.60;2.67;;;14.00;97.30;;;;;;5076370;28;20949;-75
2021/09/18 08:12:22;;;;;;;4.83;2.87;;;14.00;97.30;;;;;;5074235;28;20919;-77
2021/09/18 08:14:48;;;;;;;5.10;3.30;;;14.00;97.30;;;;;;5065414;28;20502;-78
2021/09/18 08:17:14;;;;;;;7.10;3.43;;;14.00;97.30;;;;;;5073119;28;20447;-77
2021/09/18 08:19:40;;;;;;;5.70;3.10;;;14.00;97.30;;;;;;5076303;28;20595;-77
2021/09/18 08:22:05;;;;;;;8.07;3.50;;;14.00;97.30;;;;;;5072244;28;20227;-76
2021/09/18 08:24:31;;;;;;;4.20;3.80;;;14.00;97.30;;;;;;5073417;28;20894;-76
2021/09/18 08:26:56;;;;;;;6.93;4.07;;;14.00;97.30;;;;;;5092204;28;20222;-78
2021/09/18 08:29:22;;;;;;;6.43;4.13;;;14.00;97.30;;;;;;5093921;28;20187;-75
2021/09/18 08:31:48;;;;;;;9.10;3.93;;;14.00;97.30;;;;;;5079423;28;20186;-78
2021/09/18 08:34:13;;;;;;;4.30;3.70;;;14.00;97.30;;;;;;5073577;28;20195;-76
2021/09/18 08:36:39;;;;;;;10.43;4.20;;;14.00;97.30;;;;;;5077567;28;20560;-75
2021/09/18 08:39:04;;;;;;;7.90;5.07;;;14.00;97.30;;;;;;5090767;28;20174;-76
2021/09/18 08:41:30;;;;;;;6.97;4.97;;;14.00;97.30;;;;;;5074405;28;20182;-77
2021/09/18 08:43:57;;;;;;;5.13;4.60;;;14.00;97.30;;;;;;5072894;28;20299;-77
2021/09/18 08:46:24;;;;;;;6.83;4.90;;;14.00;97.30;;;;;;5076589;28;20684;-76
2021/09/18 08:48:51;;;;;;;9.13;5.70;;;14.00;97.30;;;;;;5093860;28;20408;-77
2021/09/18 08:51:17;;;;;;;6.60;5.90;;;14.00;97.30;;;;;;5086927;28;20405;-77
2021/09/18 08:53:43;;;;;;;16.00;14.40;;;14.00;97.30;;;;;;5073312;28;20452;-75
2021/09/18 08:56:08;;;;;;;5.77;4.73;;;14.00;97.30;;;;;;5073891;28;20207;-77
2021/09/18 08:58:34;;;;;;;9.70;5.60;;;14.00;97.30;;;;;;5073176;28;20171;-77
2021/09/18 09:01:00;;;;;;;8.90;5.33;;;14.00;97.30;;;;;;5073266;28;20179;-78
2021/09/18 09:03:27;;;;;;;5.77;4.53;;;14.10;97.30;;;;;;5076182;28;20195;-79
2021/09/18 09:06:00;;;;;;;8.33;4.73;;;14.10;97.30;;;;;;5076917;28;20460;-78
2021/09/18 09:08:26;;;;;;;8.80;6.00;;;14.20;97.30;;;;;;5077985;28;20406;-78
2021/09/18 09:10:53;;;;;;;5.77;4.53;;;14.20;97.30;;;;;;5078514;28;20428;-79
2021/09/18 09:13:22;;;;;;;6.13;4.57;;;14.20;97.30;;;;;;5075992;28;20286;-79
2021/09/18 09:15:51;;;;;;;6.60;4.30;;;14.10;97.30;;;;;;5074925;28;20405;-78
2021/09/18 09:18:27;;;;;;;6.13;4.70;;;14.10;97.30;;;;;;5073226;28;20431;-78
2021/09/18 09:21:20;;;;;;;5.97;4.30;;;14.10;97.30;;;;;;5073273;28;20516;-78
2021/09/18 09:24:06;;;;;;;9.27;5.10;;;14.10;97.30;;;;;;5072890;28;20433;-78
2021/09/18 09:26:36;;;;;;;5.27;4.23;;;14.10;97.30;;;;;;5073257;28;20469;-78
2021/09/18 09:29:03;;;;;;;6.37;4.80;;;14.10;97.30;;;;;;5073375;28;20778;-77
2021/09/18 09:31:29;;;;;;;6.17;5.20;;;14.10;97.30;;;;;;5073193;28;20425;-78
2021/09/18 09:34:18;;;;;;;10.10;7.00;;;14.10;97.30;;;;;;5074297;28;20422;-76
2021/09/18 09:36:46;;;;;;;8.53;5.60;;;14.10;97.30;;;;;;5072981;28;20426;-76
2021/09/18 09:39:15;;;;;;;5.03;4.20;;;14.10;97.30;;;;;;5072230;28;20420;-77
2021/09/18 09:41:46;;;;;;;5.43;4.60;;;14.10;97.30;;;;;;5071332;28;20935;-76
2021/09/18 09:44:19;;;;;;;7.10;4.90;;;14.00;97.30;;;;;;5089651;28;20561;-77
2021/09/18 09:47:09;;;;;;;7.20;5.00;;;14.00;97.30;;;;;;5092428;28;20609;-77
2021/09/18 09:49:53;;;;;;;7.23;5.47;;;14.00;97.30;;;;;;5092362;28;20938;-78
2021/09/18 09:52:23;;;;;;;6.27;5.00;;;14.10;97.30;;;;;;5083041;28;21061;-77
2021/09/18 09:54:51;;;;;;;7.20;4.73;;;14.10;97.30;;;;;;5090304;28;20409;-77
2021/09/18 09:57:17;;;;;;;10.63;5.67;;;14.10;97.30;;;;;;5092185;28;20412;-78
2021/09/18 09:59:43;;;;;;;5.90;4.30;;;14.20;97.30;;;;;;5092572;28;20465;-77
2021/09/18 10:02:11;;;;;;;4.70;3.93;;;14.20;97.30;;;;;;5091378;28;20225;-78
2021/09/18 10:04:37;;;;;;;5.00;3.73;;;14.20;97.30;;;;;;5091101;28;20940;-76
2021/09/18 10:07:04;;;;;;;4.93;3.70;;;14.30;97.30;;;;;;5092402;28;20504;-76
2021/09/18 10:09:30;;;;;;;3.70;3.00;;;14.30;97.30;;;;;;5093693;28;20434;-76
2021/09/18 10:11:57;;;;;;;4.40;3.20;;;14.30;97.30;;;;;;5093313;28;20421;-78
2021/09/18 10:14:25;;;;;;;4.13;3.20;;;14.40;97.30;;;;;;5093800;28;20439;-79
2021/09/18 10:16:55;;;;;;;4.80;3.50;;;14.40;97.30;;;;;;5094076;28;20405;-80
2021/09/18 10:19:33;;;;;;;5.00;3.60;;;14.40;97.30;;;;;;5094114;28;20420;-80
2021/09/18 10:24:43;;;;;;;4.57;3.53;;;14.40;97.30;;;;;;5094258;28;20475;-79
2021/09/18 10:27:19;;;;;;;7.03;4.20;;;14.40;97.30;;;;;;5092747;28;20539;-78
2021/09/18 10:29:46;;;;;;;5.80;4.53;;;14.40;97.30;;;;;;5094202;28;20423;-78
2021/09/18 10:32:13;;;;;;;5.67;4.03;;;14.40;97.30;;;;;;5079314;28;20410;-79
2021/09/18 10:34:38;;;;;;;5.10;3.90;;;14.40;97.30;;;;;;5072370;28;20427;-79
2021/09/18 10:37:04;;;;;;;5.63;3.90;;;14.50;97.30;;;;;;5072105;28;20496;-79
2021/09/18 10:39:30;;;;;;;9.00;4.37;;;14.50;97.30;;;;;;5073197;28;20666;-80
2021/09/18 10:41:59;;;;;;;6.90;4.93;;;14.60;97.30;;;;;;5071922;28;20418;-79
2021/09/18 10:44:45;;;;;;;5.70;4.23;;;14.60;97.30;;;;;;5071396;28;20334;-79
2021/09/18 10:47:11;;;;;;;5.90;4.97;;;14.60;97.30;;;;;;5071901;28;20496;-79
2021/09/18 10:49:43;;;;;;;9.13;5.13;;;14.70;97.30;;;;;;5066910;28;20454;-79
2021/09/18 10:52:24;;;;;;;10.20;5.27;;;14.70;97.30;;;;;;5063247;28;20178;-79
2021/09/18 10:55:05;;;;;;;7.77;4.70;;;14.70;97.30;;;;;;5072187;28;20413;-79
2021/09/18 10:57:42;;;;;;;9.30;6.00;;;14.60;97.30;;;;;;5071992;28;20467;-79
2021/09/18 11:00:09;;;;;;;9.60;6.20;;;14.70;97.30;;;;;;5072000;28;20451;-80
2021/09/18 11:02:35;;;;;;;12.83;7.13;;;14.60;97.30;;;;;;5071425;28;20504;-79
2021/09/18 11:05:24;;;;;;;15.23;8.10;;;14.60;97.30;;;;;;5071430;28;20489;-79
2021/09/18 11:07:52;;;;;;;13.70;6.80;;;14.60;97.30;;;;;;5068777;28;20274;-80
2021/09/18 11:10:21;;;;;;;15.43;9.00;;;14.60;97.30;;;;;;5071862;28;20408;-79
2021/09/18 11:13:08;;;;;;;16.23;9.10;;;14.70;97.30;;;;;;5072888;28;20465;-77
2021/09/18 11:15:52;;;;;;;19.67;10.03;;;14.80;97.30;;;;;;5071688;28;20471;-77
2021/09/18 11:18:31;;;;;;;24.83;10.33;;;14.90;97.30;;;;;;5071619;28;20420;-77
2021/09/18 11:21:17;;;;;;;19.73;10.27;;;15.00;97.30;;;;;;5071460;28;20974;-78
2021/09/18 11:23:51;;;;;;;21.27;10.13;;;15.10;97.30;;;;;;5072871;28;20802;-79
2021/09/18 11:26:40;;;;;;;19.93;10.13;;;15.20;97.30;;;;;;5072877;28;20441;-79
2021/09/18 11:29:19;;;;;;;18.60;9.80;;;15.30;97.30;;;;;;5072881;28;20405;-78
2021/09/18 11:32:15;;;;;;;18.37;9.77;;;15.30;97.30;;;;;;5076053;28;20406;-78
2021/09/18 11:34:50;;;;;;;17.17;8.97;;;15.30;97.30;;;;;;5071144;28;20787;-79
2021/09/18 11:37:25;;;;;;;17.43;9.60;;;15.30;97.30;;;;;;5071412;28;20422;-78
2021/09/18 11:39:56;;;;;;;18.17;9.80;;;15.30;97.30;;;;;;5071581;28;20417;-79
2021/09/18 11:42:34;;;;;;;17.90;9.90;;;15.30;97.30;;;;;;5072264;28;20410;-79
2021/09/18 11:45:38;;;;;;;21.00;10.67;;;15.30;97.30;;;;;;5071230;28;20461;-78
2021/09/18 11:48:04;;;;;;;18.87;9.87;;;15.30;97.30;;;;;;5072112;28;20425;-79
2021/09/18 11:50:34;;;;;;;21.47;10.90;;;15.40;97.30;;;;;;5072422;28;20423;-79
2021/09/18 11:53:11;;;;;;;22.10;10.40;;;15.40;97.30;;;;;;5071146;28;20478;-79
2021/09/18 11:55:40;;;;;;;15.60;8.67;;;15.40;97.30;;;;;;5067616;28;20418;-79
2021/09/18 11:58:22;;;;;;;17.97;10.40;;;15.40;97.30;;;;;;5052617;28;20406;-79
2021/09/18 12:00:57;;;;;;;23.90;10.57;;;15.50;97.30;;;;;;5051503;28;21282;-78
2021/09/18 12:03:26;;;;;;;19.97;9.93;;;15.50;97.30;;;;;;5070749;28;20447;-79
2021/09/18 12:05:54;;;;;;;15.80;8.93;;;15.50;97.30;;;;;;5060250;28;20456;-79
2021/09/18 12:08:24;;;;;;;19.37;9.37;;;15.60;97.30;;;;;;5051290;28;20429;-79
2021/09/18 12:10:51;;;;;;;13.37;7.90;;;15.70;97.30;;;;;;5052895;28;20434;-79
2021/09/18 12:13:19;;;;;;;13.77;8.87;;;15.80;97.30;;;;;;5069590;28;20856;-78
2021/09/18 12:15:46;;;;;;;11.50;7.13;;;15.90;97.30;;;;;;5072679;28;20446;-79
2021/09/18 12:18:32;;;;;;;11.07;6.83;;;15.90;97.30;;;;;;5076194;28;20417;-79
2021/09/18 12:21:00;;;;;;;13.10;7.17;;;16.00;97.30;;;;;;5061397;28;21006;-80
2021/09/18 12:23:26;;;;;;;9.67;6.80;;;16.10;97.30;;;;;;5055613;28;20517;-79
2021/09/18 12:25:58;;;;;;;10.80;6.90;;;16.20;97.30;;;;;;5054291;28;21017;-78
2021/09/18 12:28:25;;;;;;;11.63;6.97;;;16.30;97.30;;;;;;5054648;28;20832;-78
2021/09/18 12:30:51;;;;;;;13.10;7.70;;;16.30;97.30;;;;;;5054815;28;20759;-79
2021/09/18 12:33:25;;;;;;;8.77;5.97;;;16.30;97.30;;;;;;5055942;28;20438;-80
2021/09/18 12:35:51;;;;;;;11.23;7.23;;;16.40;97.30;;;;;;5061279;28;20233;-79
2021/09/18 12:38:17;;;;;;;12.07;7.47;;;16.40;97.30;;;;;;5056203;28;21160;-80
2021/09/18 12:40:49;;;;;;;13.83;8.30;;;16.50;97.30;;;;;;5056262;28;20994;-80
2021/09/18 12:43:20;;;;;;;11.53;7.57;;;16.50;97.30;;;;;;5073328;28;20464;-79
2021/09/18 12:45:48;;;;;;;10.80;7.20;;;16.50;97.30;;;;;;5076451;28;21000;-80
2021/09/18 12:48:23;;;;;;;9.87;6.57;;;16.60;97.30;;;;;;5075584;28;20414;-79
2021/09/18 12:50:53;;;;;;;9.07;6.57;;;16.60;97.30;;;;;;5075630;28;20789;-80
2021/09/18 12:53:23;;;;;;;10.20;5.70;;;16.60;97.30;;;;;;5075907;28;20962;-79